EGAA

Belfast International Airport

Belfast, United Kingdom
METAR EGAA 240750Z 07009KT CAVOK 14/10 Q1024
Observed Flight Rules
May-24 @ 07:50 UTC (10 minutes ago) Visual Flight Rules
Wind Visibility Clouds
70° at 9 knots 10,000+ meters
  • Clear skies
Temperatures Readings
Current 14°C / 57°F
Dewpoint 10°C / 50°F
Humidity 77%
Altimeter 30.24" Hg
Pressure 1024 hPa
Elevation 81
METAR EGAA 240750Z 07009KT CAVOK 14/10 Q1024
Observed Flight Rules
May-24 @ 07:50 UTC
(10 minutes ago)
VFR
Wind Visibility
70° at 9 knots 10,000+ meters
Clouds
  • Clear skies
Temperature Dewpoint
14°C / 57°F 10°C / 50°F
Humidity Altimeter Pressure
77% 30.24" Hg 1024 hPa